Pagina principale
METAR-TAF:

METAR-TAF

Aeroporti :

Aeroporto Internazionale Sir Seretse Khama

Gaborone, Botswana

latitudine: 24-13S, longitudine: 025-55E, altezza: 1005 m

Osservazione

Il bollettino è stato emesso 1 ora e 1 minuti fa, alle 12:00 UTC
Vento 7 kt da sud/sud-ovest, variando fra sud/sud-est e ovest/sud-ovest
Temperature 31°C
Umidità 24%
Pressione 1017 hPa
Visibilità 10 km o più
Poco nuvoloso ad un'altezza di 3000 ft

METAR: FBSK 271200Z 20007KT 160V250 9999 FEW030 31/08 Q1017 NOSIG

Ora: 15:01 (13:01 UTC)

Previsione

Il bollettino è stato emesso 4 ore e 1 minuti fa, alle 09:00 UTC
Previsione valida dal 27 alle 12 UTC al 28 alle 18 UTC
Vento 5 kt da sud-ovest
Visibilità 10 km o più
nessuna nube inferiore a 1500 m e nessun cumulonembo

TAF: FBSK 270900Z 2712/2818 23005KT CAVOK

Osservazioni e previsioni meteorologiche di più di 4000 aeroporti (messaggi METAR e TAF).

Le stazioni disponibili sono rappresentate dai dischi gialli e rossi sulla carta.

Puntare il mouse per vedere il nome della stazione.

Clicca sopra per visualizzare le osservazioni e previsioni meteorologiche.

Per cambiare la mappa : fare clic sui pulsanti verdi con una croce nera per ingrandire, il pulsante verde con un trattino per diminuire, o sulla freccia verde per le mappe adiacenti.


METAR-TAF: